Time;durP1;ratioP1;P1;durP2;ratioP2;P2;SDS_P1;SDS_P2;PMS_P1;PMS_P2;Temp;Humidity;BMP_temperature;BMP_pressure;BME280_temperature;BME280_humidity;BME280_pressure;Samples;Min_cycle;Max_cycle;Signal;HPM_P1;HPM_P2
2022/07/18 00:00:08;;;;;;;8.57;3.85;;;;;;;24.67;43.03;99272.31;5059448;28;20490;-69
2022/07/18 00:02:34;;;;;;;7.78;3.80;;;;;;;24.65;42.85;99275.28;5076108;28;20047;-69
2022/07/18 00:05:00;;;;;;;8.30;3.90;;;;;;;24.62;42.74;99281.19;5042917;28;20054;-69
2022/07/18 00:07:26;;;;;;;6.93;3.97;;;;;;;24.70;42.17;99271.78;5059505;28;20462;-70
2022/07/18 00:09:52;;;;;;;8.43;3.85;;;;;;;24.70;42.50;99274.50;5075837;28;20069;-70
2022/07/18 00:12:19;;;;;;;8.20;4.22;;;;;;;24.59;42.56;99260.00;5059354;28;20067;-71
2022/07/18 00:14:45;;;;;;;7.78;3.75;;;;;;;24.73;42.97;99269.38;5092646;28;20218;-70
2022/07/18 00:17:11;;;;;;;5.03;3.97;;;;;;;24.64;42.93;99270.91;5059867;28;20055;-71
2022/07/18 00:19:37;;;;;;;5.53;3.83;;;;;;;24.69;43.00;99272.88;5042750;28;20510;-70
2022/07/18 00:22:04;;;;;;;5.28;3.70;;;;;;;24.77;42.57;99258.84;5059726;28;20043;-70
2022/07/18 00:24:31;;;;;;;5.63;4.00;;;;;;;24.68;42.67;99263.06;5093017;28;20116;-70
2022/07/18 00:26:58;;;;;;;6.40;4.43;;;;;;;24.65;43.12;99247.25;5059291;28;20040;-69
2022/07/18 00:29:24;;;;;;;5.82;4.00;;;;;;;24.67;43.12;99264.16;5059025;28;20077;-71
2022/07/18 00:31:50;;;;;;;7.32;3.70;;;;;;;24.53;44.03;99261.03;5058893;28;20402;-76
2022/07/18 00:34:16;;;;;;;5.15;3.70;;;;;;;24.83;43.46;99261.31;5043465;28;20139;-75
2022/07/18 00:36:42;;;;;;;6.68;3.58;;;;;;;25.29;42.31;99270.66;5060602;28;20067;-74
2022/07/18 00:39:08;;;;;;;5.80;3.50;;;;;;;25.44;41.60;99276.22;5077313;28;20054;-75
2022/07/18 00:41:35;;;;;;;6.72;3.67;;;;;;;25.68;40.81;99273.91;5059244;28;20086;-74
2022/07/18 00:44:02;;;;;;;8.60;3.78;;;;;;;26.02;40.30;99269.72;5093295;28;20043;-75
2022/07/18 00:46:29;;;;;;;10.32;3.80;;;;;;;26.02;40.45;99273.25;5059817;28;20043;-73
2022/07/18 00:48:55;;;;;;;7.72;3.70;;;;;;;26.09;39.92;99270.31;5093608;28;20039;-74
2022/07/18 00:51:22;;;;;;;5.88;3.80;;;;;;;26.29;39.78;99273.09;5045748;28;20035;-75
2022/07/18 00:53:48;;;;;;;5.53;3.65;;;;;;;26.32;39.53;99276.06;5047493;28;20046;-74
2022/07/18 00:56:19;;;;;;;5.57;3.42;;;;;;;26.45;39.68;99282.91;5050907;28;20039;-74
2022/07/18 00:58:45;;;;;;;7.72;3.88;;;;;;;26.22;39.63;99276.06;5073000;28;20043;-80
2022/07/18 01:03:55;;;;;;;5.28;3.47;;;;;;;26.22;39.21;99288.84;5066407;28;20047;-74
2022/07/18 01:06:21;;;;;;;5.47;3.58;;;;;;;26.03;39.31;99283.06;5062909;28;20044;-74
2022/07/18 01:08:48;;;;;;;5.38;3.83;;;;;;;25.94;39.57;99279.19;5063217;28;20044;-75
2022/07/18 01:11:14;;;;;;;7.47;3.92;;;;;;;25.69;40.03;99273.66;5047244;28;20077;-75
2022/07/18 01:13:41;;;;;;;5.45;3.65;;;;;;;25.70;40.19;99277.16;5062578;28;20667;-75
2022/07/18 01:16:07;;;;;;;7.80;3.60;;;;;;;25.56;40.34;99276.00;5044348;28;20044;-76
2022/07/18 01:18:33;;;;;;;4.47;3.30;;;;;;;25.51;40.23;99268.63;5044590;28;20058;-75
2022/07/18 01:20:59;;;;;;;6.63;3.58;;;;;;;25.40;40.71;99271.56;5077220;28;20477;-75
2022/07/18 01:23:25;;;;;;;8.20;4.10;;;;;;;25.33;40.99;99257.38;5043045;28;20069;-76
2022/07/18 01:25:51;;;;;;;4.85;3.72;;;;;;;25.29;41.19;99267.09;5077639;28;20477;-76
2022/07/18 01:28:17;;;;;;;7.20;3.75;;;;;;;25.23;41.54;99268.97;5094509;28;20126;-76
2022/07/18 01:30:43;;;;;;;5.03;3.80;;;;;;;25.21;41.16;99273.03;5062905;28;20546;-75
2022/07/18 01:33:09;;;;;;;7.50;3.67;;;;;;;25.28;41.63;99274.44;5062712;28;20153;-74
2022/07/18 01:35:35;;;;;;;7.82;3.28;;;;;;;25.19;41.35;99269.72;5046642;28;20076;-75
2022/07/18 01:38:04;;;;;;;5.07;3.47;;;;;;;25.37;41.31;99274.81;5096752;28;20039;-75
2022/07/18 01:40:33;;;;;;;4.78;3.40;;;;;;;25.14;40.91;99272.44;5079569;28;20054;-73
2022/07/18 01:42:59;;;;;;;8.30;3.05;;;;;;;25.20;40.78;99279.56;5062673;28;20138;-75
2022/07/18 01:45:24;;;;;;;4.05;3.10;;;;;;;25.11;40.78;99265.59;5046071;28;20147;-75
2022/07/18 01:47:50;;;;;;;3.22;2.65;;;;;;;25.14;40.65;99256.94;5062661;28;20388;-76
2022/07/18 01:50:23;;;;;;;4.20;2.50;;;;;;;25.51;40.20;99276.00;5046174;28;20052;-75
2022/07/18 01:52:49;;;;;;;4.30;2.35;;;;;;;25.13;40.40;99262.63;5079769;28;20042;-78
2022/07/18 01:55:17;;;;;;;7.72;2.60;;;;;;;25.12;40.50;99269.97;5046450;28;20039;-75
2022/07/18 01:57:43;;;;;;;4.75;2.70;;;;;;;25.10;40.56;99266.69;5063179;28;20055;-75
2022/07/18 02:00:10;;;;;;;5.35;2.90;;;;;;;25.24;40.69;99261.63;5080523;28;20047;-74
2022/07/18 02:02:37;;;;;;;8.57;2.70;;;;;;;25.02;40.65;99237.28;5062723;28;20043;-74
2022/07/18 02:05:04;;;;;;;4.75;2.50;;;;;;;25.26;40.77;99256.75;5062712;28;20048;-75
2022/07/18 02:07:34;;;;;;;5.72;2.67;;;;;;;25.33;41.00;99262.81;5095788;28;20047;-75
2022/07/18 02:10:01;;;;;;;6.93;2.50;;;;;;;25.21;40.96;99254.81;5045175;28;20036;-76
2022/07/18 02:12:27;;;;;;;8.75;2.78;;;;;;;25.11;41.17;99257.44;5078691;28;20050;-75
2022/07/18 02:14:53;;;;;;;5.07;3.20;;;;;;;25.04;41.36;99231.59;5078955;28;20048;-75
2022/07/18 02:17:21;;;;;;;5.38;3.30;;;;;;;25.15;41.70;99236.84;5045418;28;20074;-83
2022/07/18 02:19:46;;;;;;;5.53;3.63;;;;;;;25.19;41.75;99265.13;5062098;28;20043;-74
2022/07/18 02:22:12;;;;;;;7.80;3.90;;;;;;;25.18;41.88;99265.38;5062139;28;20077;-79
2022/07/18 02:24:38;;;;;;;11.43;3.85;;;;;;;25.19;41.69;99267.84;5080559;28;20126;-75
2022/07/18 02:27:04;;;;;;;7.15;3.08;;;;;;;25.23;41.30;99268.16;5079458;28;20039;-76
2022/07/18 02:29:30;;;;;;;9.82;3.80;;;;;;;25.24;41.85;99267.06;5062479;28;20044;-76
2022/07/18 02:31:56;;;;;;;7.57;3.85;;;;;;;25.26;41.76;99271.19;5045638;28;20471;-76
2022/07/18 02:34:22;;;;;;;7.97;3.78;;;;;;;25.32;41.61;99264.69;5044695;28;20089;-76
2022/07/18 02:36:50;;;;;;;10.90;3.63;;;;;;;25.30;41.67;99266.00;5061898;28;20383;-75
2022/07/18 02:39:16;;;;;;;7.07;3.17;;;;;;;25.33;41.65;99260.09;5045329;28;20054;-75
2022/07/18 02:41:42;;;;;;;7.57;3.83;;;;;;;25.35;41.83;99266.09;5045720;28;20043;-75
2022/07/18 02:44:08;;;;;;;9.98;3.97;;;;;;;25.31;41.77;99259.50;5062425;28;20043;-75
2022/07/18 02:46:34;;;;;;;9.80;4.10;;;;;;;25.45;41.50;99263.44;5078009;28;20051;-75
2022/07/18 02:49:01;;;;;;;7.20;3.85;;;;;;;25.51;41.61;99252.31;5061169;28;20039;-75
2022/07/18 02:51:27;;;;;;;5.30;3.65;;;;;;;25.64;41.43;99270.88;5044447;28;20039;-75
2022/07/18 02:53:52;;;;;;;4.80;3.85;;;;;;;25.62;41.08;99269.50;5044158;28;20100;-78
2022/07/18 02:56:18;;;;;;;8.40;3.42;;;;;;;25.66;41.06;99270.63;5061386;28;20047;-74
2022/07/18 02:58:44;;;;;;;5.45;3.38;;;;;;;25.74;41.00;99270.13;5061372;28;20043;-74
2022/07/18 03:01:10;;;;;;;7.28;3.60;;;;;;;25.74;40.90;99270.13;5061626;28;20490;-74
2022/07/18 03:03:36;;;;;;;8.05;3.55;;;;;;;25.72;40.42;99248.63;5061428;28;20040;-74
2022/07/18 03:06:02;;;;;;;6.93;2.90;;;;;;;25.76;40.30;99257.88;5044381;28;20180;-75
2022/07/18 03:08:28;;;;;;;8.38;3.20;;;;;;;25.78;40.59;99269.34;5044178;28;20043;-75
2022/07/18 03:10:54;;;;;;;5.68;3.20;;;;;;;25.78;40.51;99263.88;5077201;28;20055;-76
2022/07/18 03:13:20;;;;;;;6.00;3.15;;;;;;;25.79;40.61;99270.13;5060411;28;20069;-75
2022/07/18 03:15:46;;;;;;;7.30;3.63;;;;;;;25.72;40.52;99270.41;5077685;28;20147;-75
2022/07/18 03:18:11;;;;;;;9.35;3.33;;;;;;;25.73;40.27;99261.13;5044795;28;20035;-75
2022/07/18 03:20:37;;;;;;;7.30;3.25;;;;;;;25.70;40.46;99271.72;5061109;28;20133;-75
2022/07/18 03:23:08;;;;;;;11.43;4.07;;;;;;;25.95;40.78;99261.78;5061087;28;20126;-76
2022/07/18 03:25:36;;;;;;;8.75;3.65;;;;;;;25.76;40.66;99266.06;5077561;28;20099;-75
2022/07/18 03:28:02;;;;;;;7.20;4.22;;;;;;;25.84;41.11;99268.28;5044540;28;20132;-75
2022/07/18 03:30:27;;;;;;;9.18;4.32;;;;;;;25.81;41.45;99266.09;5045047;28;20138;-75
2022/07/18 03:32:53;;;;;;;7.90;3.78;;;;;;;25.87;41.10;99267.75;5061203;28;20117;-80
2022/07/18 03:35:19;;;;;;;6.30;3.83;;;;;;;25.84;41.28;99268.28;5043634;28;20040;-75
2022/07/18 03:37:45;;;;;;;7.07;3.95;;;;;;;25.87;41.14;99275.91;5094282;28;20047;-74
2022/07/18 03:40:13;;;;;;;7.68;3.67;;;;;;;25.87;41.46;99266.91;5044348;28;20104;-74
2022/07/18 03:42:42;;;;;;;9.13;3.72;;;;;;;25.97;41.07;99266.97;5077266;28;20063;-75
2022/07/18 03:45:08;;;;;;;9.25;4.40;;;;;;;25.97;41.11;99272.41;5060213;28;20147;-74
2022/07/18 03:47:36;;;;;;;7.47;3.97;;;;;;;26.12;41.16;99267.84;5060325;28;20092;-74
2022/07/18 03:50:02;;;;;;;7.70;4.15;;;;;;;25.99;41.34;99275.69;5060247;28;20043;-75
2022/07/18 03:52:31;;;;;;;7.95;4.45;;;;;;;25.99;40.87;99268.34;5077457;28;20040;-75
2022/07/18 03:55:01;;;;;;;11.60;4.63;;;;;;;25.95;40.85;99271.84;5044130;28;20529;-75
2022/07/18 03:57:29;;;;;;;13.95;4.05;;;;;;;25.97;41.10;99270.47;5061719;28;20134;-75
2022/07/18 03:59:55;;;;;;;6.53;3.85;;;;;;;25.96;40.85;99276.19;5059934;28;20145;-78
2022/07/18 04:02:21;;;;;;;8.85;4.25;;;;;;;25.94;41.30;99273.75;5077010;28;20157;-75
2022/07/18 04:04:46;;;;;;;10.15;4.40;;;;;;;26.01;41.04;99274.38;5043813;28;20474;-73
2022/07/18 04:07:12;;;;;;;19.67;5.75;;;;;;;26.09;40.75;99271.09;5077015;28;20059;-74
2022/07/18 04:09:38;;;;;;;19.08;5.82;;;;;;;26.07;40.78;99267.84;5077280;28;20035;-76
2022/07/18 04:12:04;;;;;;;16.38;5.35;;;;;;;26.22;40.15;99267.88;5077297;28;20588;-75
2022/07/18 04:14:30;;;;;;;15.85;4.53;;;;;;;26.17;40.35;99265.16;5060348;28;20039;-74
2022/07/18 04:16:56;;;;;;;10.63;4.70;;;;;;;26.28;39.98;99269.53;5076863;28;20077;-77
2022/07/18 04:19:23;;;;;;;6.57;4.18;;;;;;;26.29;39.79;99271.16;5059884;28;20043;-75
2022/07/18 04:21:48;;;;;;;8.77;4.68;;;;;;;26.18;39.93;99242.31;5076637;28;20415;-75
2022/07/18 04:24:14;;;;;;;12.38;4.63;;;;;;;26.32;40.09;99253.50;5043255;28;20035;-75
2022/07/18 04:26:40;;;;;;;9.77;4.60;;;;;;;26.36;39.82;99263.56;5062415;28;20043;-75
2022/07/18 04:29:06;;;;;;;6.60;4.00;;;;;;;26.51;39.91;99257.31;5047051;28;20088;-75
2022/07/18 04:31:32;;;;;;;9.90;4.47;;;;;;;26.56;39.59;99230.09;5047226;28;20047;-75
2022/07/18 04:33:58;;;;;;;8.35;4.60;;;;;;;26.93;39.21;99249.75;5080185;28;20065;-75
2022/07/18 04:36:25;;;;;;;10.00;4.85;;;;;;;26.90;39.38;99249.47;5047319;28;20044;-76
2022/07/18 04:38:51;;;;;;;7.65;4.60;;;;;;;27.02;39.44;99252.75;5047784;28;20069;-74
2022/07/18 04:41:19;;;;;;;7.35;5.00;;;;;;;27.07;39.10;99239.13;5047270;28;20047;-75
2022/07/18 04:43:45;;;;;;;12.23;6.00;;;;;;;27.25;38.74;99242.13;5080695;28;20040;-74
2022/07/18 04:46:11;;;;;;;11.30;7.53;;;;;;;27.26;37.83;99240.22;5063519;28;20043;-75
2022/07/18 04:48:38;;;;;;;8.57;5.10;;;;;;;27.33;37.60;99244.28;5046962;28;20081;-75
2022/07/18 04:51:04;;;;;;;8.50;4.45;;;;;;;27.40;37.21;99238.56;5080548;28;20055;-75
2022/07/18 04:53:30;;;;;;;7.07;3.58;;;;;;;27.41;36.05;99246.47;5064170;28;20043;-76
2022/07/18 04:55:56;;;;;;;4.55;3.25;;;;;;;27.41;36.08;99251.09;5063932;28;20491;-74
2022/07/18 04:58:22;;;;;;;8.13;3.45;;;;;;;27.59;36.01;99245.88;5047189;28;20127;-74
2022/07/18 05:00:48;;;;;;;10.80;3.30;;;;;;;27.64;35.50;99256.78;5064171;28;20051;-75
2022/07/18 05:03:14;;;;;;;5.50;3.35;;;;;;;27.73;35.45;99246.91;5046818;28;20046;-75
2022/07/18 05:05:39;;;;;;;9.75;3.90;;;;;;;27.81;36.14;99257.25;5063323;28;20039;-75
2022/07/18 05:08:05;;;;;;;7.90;4.60;;;;;;;27.88;36.02;99256.97;5063370;28;20044;-75
2022/07/18 05:10:32;;;;;;;8.02;3.75;;;;;;;27.95;35.69;99262.97;5063228;28;20055;-75
2022/07/18 05:12:58;;;;;;;5.93;3.58;;;;;;;27.92;35.24;99272.50;5062996;28;20112;-76
2022/07/18 05:15:25;;;;;;;8.88;3.20;;;;;;;28.11;34.80;99266.44;5079401;28;20495;-75
2022/07/18 05:17:51;;;;;;;8.60;3.70;;;;;;;28.00;34.92;99277.41;5079763;28;20388;-76
2022/07/18 05:20:19;;;;;;;5.80;3.88;;;;;;;28.18;34.65;99275.13;5062768;28;20047;-75
2022/07/18 05:22:45;;;;;;;6.80;3.63;;;;;;;28.00;34.85;99276.56;5046262;28;20039;-76
2022/07/18 05:25:12;;;;;;;9.23;3.38;;;;;;;28.11;34.46;99280.09;5063351;28;20039;-75
2022/07/18 05:27:41;;;;;;;5.53;2.88;;;;;;;28.29;34.23;99277.56;5079740;28;20418;-75
2022/07/18 05:30:10;;;;;;;4.13;2.63;;;;;;;28.42;33.46;99274.19;5063153;28;20118;-76
2022/07/18 05:32:36;;;;;;;6.20;2.85;;;;;;;28.45;33.37;99262.69;5063181;28;20044;-75
2022/07/18 05:35:02;;;;;;;6.93;2.88;;;;;;;28.42;33.44;99254.22;5096171;28;20031;-75
2022/07/18 05:37:29;;;;;;;4.93;3.05;;;;;;;28.50;33.22;99257.22;5063154;28;20043;-75
2022/07/18 05:39:55;;;;;;;7.50;3.25;;;;;;;28.75;33.17;99250.75;5064091;28;20064;-77
2022/07/18 05:42:20;;;;;;;6.30;3.30;;;;;;;29.00;32.66;99254.09;5080416;28;20051;-75
2022/07/18 05:44:46;;;;;;;8.93;3.08;;;;;;;29.23;32.00;99242.41;5079669;28;20066;-75
2022/07/18 05:47:13;;;;;;;7.50;2.90;;;;;;;29.55;31.54;99245.38;5046547;28;20039;-76
2022/07/18 05:49:39;;;;;;;10.32;3.10;;;;;;;29.83;31.26;99237.44;5063571;28;20407;-76
2022/07/18 05:52:05;;;;;;;7.32;3.05;;;;;;;30.10;30.56;99238.44;5063823;28;20039;-76
2022/07/18 05:54:31;;;;;;;10.13;3.55;;;;;;;30.20;30.52;99229.31;5083195;28;20039;-82
2022/07/18 05:56:59;;;;;;;8.40;3.35;;;;;;;30.46;30.18;99236.03;5051492;28;20039;-75
2022/07/18 05:59:25;;;;;;;6.43;3.00;;;;;;;30.63;29.76;99239.06;5053697;28;20043;-77
2022/07/18 06:01:51;;;;;;;9.43;3.28;;;;;;;30.66;29.68;99238.47;5057179;28;20035;-75
2022/07/18 06:04:17;;;;;;;8.57;2.85;;;;;;;30.77;29.45;99232.53;5087287;28;20092;-75
